Time;durP1;ratioP1;P1;durP2;ratioP2;P2;SDS_P1;SDS_P2;PMS_P1;PMS_P2;Temp;Humidity;BMP_temperature;BMP_pressure;BME280_temperature;BME280_humidity;BME280_pressure;Samples;Min_cycle;Max_cycle;Signal;HPM_P1;HPM_P2
2021/03/30 00:08:00;;;;;;;9.93;5.20;;;;;;;;;;4218713;28;20224;-50
2021/03/30 00:10:34;;;;;;;7.22;5.53;;;;;;;;;;4176844;34;20130;-51
2021/03/30 00:13:00;;;;;;;6.20;5.30;;;;;;;;;;4164705;34;20184;-48
2021/03/30 00:15:27;;;;;;;8.52;5.93;;;;;;;;;;4176985;34;20099;-46
2021/03/30 00:17:53;;;;;;;7.93;5.65;;;;;;;;;;4176782;34;20116;-48
2021/03/30 00:20:20;;;;;;;7.20;5.45;;;;;;;;;;4166352;34;20122;-50
2021/03/30 00:22:46;;;;;;;8.82;6.12;;;;;;;;;;4178860;34;20106;-49
2021/03/30 00:25:15;;;;;;;8.70;5.53;;;;;;;;;;4178968;34;20547;-50
2021/03/30 00:27:41;;;;;;;7.12;4.82;;;;;;;;;;4166072;34;20114;-48
2021/03/30 00:30:08;;;;;;;6.60;4.37;;;;;;;;;;4178745;34;20141;-50
2021/03/30 00:32:34;;;;;;;6.55;4.50;;;;;;;;;;4178704;34;20110;-45
2021/03/30 00:35:00;;;;;;;7.45;4.70;;;;;;;;;;4178901;34;20229;-50
2021/03/30 00:37:28;;;;;;;8.68;4.78;;;;;;;;;;4178932;34;20114;-50
2021/03/30 00:39:54;;;;;;;6.97;4.82;;;;;;;;;;4178977;34;20115;-50
2021/03/30 00:42:21;;;;;;;9.10;5.82;;;;;;;;;;4178659;34;20125;-46
2021/03/30 00:44:48;;;;;;;6.10;4.75;;;;;;;;;;4178816;34;20102;-46
2021/03/30 00:47:16;;;;;;;7.93;5.40;;;;;;;;;;4178893;34;20146;-49
2021/03/30 00:49:43;;;;;;;7.00;5.10;;;;;;;;;;4166384;34;20187;-49
2021/03/30 00:52:09;;;;;;;8.85;5.90;;;;;;;;;;4154875;34;20538;-49
2021/03/30 00:54:35;;;;;;;8.63;5.30;;;;;;;;;;4178591;34;20482;-50
2021/03/30 00:57:02;;;;;;;10.27;5.85;;;;;;;;;;4154786;34;20106;-51
2021/03/30 00:59:29;;;;;;;7.53;5.45;;;;;;;;;;4155083;34;20098;-49
2021/03/30 01:01:55;;;;;;;12.48;5.85;;;;;;;;;;4166103;34;20137;-49
2021/03/30 01:04:21;;;;;;;10.77;5.62;;;;;;;;;;4180793;34;20129;-51
2021/03/30 01:06:47;;;;;;;10.43;6.10;;;;;;;;;;4191770;34;20134;-52
2021/03/30 01:09:51;;;;;;;9.63;5.60;;;;;;;;;;4178401;34;20109;-46
2021/03/30 01:12:44;;;;;;;10.18;5.97;;;;;;;;;;4191405;34;20121;-54
2021/03/30 01:15:35;;;;;;;8.88;5.32;;;;;;;;;;4192317;34;20509;-47
2021/03/30 01:18:30;;;;;;;8.43;5.25;;;;;;;;;;4170412;34;20106;-52
2021/03/30 01:20:59;;;;;;;8.95;5.30;;;;;;;;;;4179412;34;20098;-52
2021/03/30 01:23:47;;;;;;;7.40;5.87;;;;;;;;;;4192350;34;20105;-50
2021/03/30 01:26:24;;;;;;;11.05;5.57;;;;;;;;;;4181157;34;20175;-49
2021/03/30 01:29:00;;;;;;;6.72;5.50;;;;;;;;;;4192394;34;20136;-46
2021/03/30 01:31:27;;;;;;;8.30;5.68;;;;;;;;;;4192020;34;20117;-50
2021/03/30 01:33:53;;;;;;;8.70;5.50;;;;;;;;;;4179228;34;20480;-51
2021/03/30 01:36:19;;;;;;;9.27;5.93;;;;;;;;;;4179142;34;20545;-50
2021/03/30 01:38:46;;;;;;;11.63;6.10;;;;;;;;;;4167918;34;20146;-52
2021/03/30 01:41:16;;;;;;;10.65;5.97;;;;;;;;;;4179112;34;20526;-48
2021/03/30 01:43:44;;;;;;;10.10;6.05;;;;;;;;;;4168339;34;20187;-51
2021/03/30 01:46:10;;;;;;;8.80;5.62;;;;;;;;;;4191056;34;20109;-50
2021/03/30 01:48:39;;;;;;;7.65;5.50;;;;;;;;;;4191327;34;20133;-54
2021/03/30 01:51:06;;;;;;;10.63;6.10;;;;;;;;;;4179314;34;20153;-54
2021/03/30 01:53:34;;;;;;;8.70;5.80;;;;;;;;;;4178645;34;20113;-56
2021/03/30 01:56:00;;;;;;;12.65;5.68;;;;;;;;;;4179134;34;20149;-49
2021/03/30 01:58:26;;;;;;;9.55;5.65;;;;;;;;;;4167680;34;20246;-52
2021/03/30 02:00:53;;;;;;;11.00;5.62;;;;;;;;;;4167396;34;20201;-43
2021/03/30 02:03:22;;;;;;;7.60;4.53;;;;;;;;;;4167847;34;20208;-52
2021/03/30 02:06:18;;;;;;;9.68;4.70;;;;;;;;;;4191568;34;20476;-48
2021/03/30 02:09:42;;;;;;;10.45;4.95;;;;;;;;;;4192419;34;20094;-44
2021/03/30 02:12:14;;;;;;;8.75;4.30;;;;;;;;;;4179133;34;20521;-45
2021/03/30 02:14:46;;;;;;;10.95;5.82;;;;;;;;;;4191512;34;20098;-49
2021/03/30 02:17:22;;;;;;;10.80;5.47;;;;;;;;;;4165928;34;20207;-49
2021/03/30 02:20:00;;;;;;;8.30;5.18;;;;;;;;;;4176096;34;20126;-45
2021/03/30 02:22:50;;;;;;;10.18;5.72;;;;;;;;;;4191510;34;20129;-46
2021/03/30 02:25:18;;;;;;;11.98;5.45;;;;;;;;;;4178370;34;20101;-47
2021/03/30 02:27:45;;;;;;;30.83;16.50;;;;;;;;;;4190889;34;20106;-50
2021/03/30 02:30:14;;;;;;;12.77;7.45;;;;;;;;;;4166171;34;20109;-51
2021/03/30 02:32:42;;;;;;;8.50;5.53;;;;;;;;;;4191357;34;20277;-45
2021/03/30 02:35:10;;;;;;;13.25;6.28;;;;;;;;;;4178790;34;20189;-46
2021/03/30 02:37:37;;;;;;;10.52;6.47;;;;;;;;;;4178539;34;20198;-48
2021/03/30 02:40:05;;;;;;;9.88;5.85;;;;;;;;;;4177133;34;20129;-48
2021/03/30 02:42:31;;;;;;;9.98;6.43;;;;;;;;;;4188571;34;20218;-53
2021/03/30 02:44:59;;;;;;;8.85;6.65;;;;;;;;;;4176561;34;20212;-50
2021/03/30 02:47:25;;;;;;;8.18;5.90;;;;;;;;;;4176211;34;20507;-49
2021/03/30 02:49:54;;;;;;;9.20;6.20;;;;;;;;;;4165332;34;20118;-50
2021/03/30 02:52:21;;;;;;;12.10;7.15;;;;;;;;;;4176321;34;20114;-45
2021/03/30 02:54:48;;;;;;;11.90;7.78;;;;;;;;;;4189809;34;20217;-49
2021/03/30 02:57:15;;;;;;;12.37;6.95;;;;;;;;;;4177984;34;20116;-45
2021/03/30 02:59:41;;;;;;;11.02;6.95;;;;;;;;;;4167195;34;20538;-50
2021/03/30 03:02:07;;;;;;;13.18;7.95;;;;;;;;;;4178283;34;20118;-52
2021/03/30 03:04:34;;;;;;;11.68;6.93;;;;;;;;;;4167338;34;20118;-49
2021/03/30 03:07:01;;;;;;;13.48;7.37;;;;;;;;;;4166903;34;20581;-50
2021/03/30 03:09:27;;;;;;;17.08;8.65;;;;;;;;;;4191139;34;20525;-49
2021/03/30 03:11:54;;;;;;;20.05;11.10;;;;;;;;;;4178217;34;20105;-50
2021/03/30 03:14:20;;;;;;;18.95;10.70;;;;;;;;;;4191008;34;20392;-51
2021/03/30 03:16:47;;;;;;;22.83;12.00;;;;;;;;;;4178077;34;20142;-53
2021/03/30 03:19:15;;;;;;;11.30;8.20;;;;;;;;;;4178461;34;20201;-49
2021/03/30 03:21:42;;;;;;;12.77;8.73;;;;;;;;;;4178516;34;20333;-48
2021/03/30 03:24:09;;;;;;;14.43;7.47;;;;;;;;;;4191187;34;20491;-50
2021/03/30 03:26:37;;;;;;;8.82;6.35;;;;;;;;;;4190906;34;20125;-49
2021/03/30 03:29:12;;;;;;;11.48;7.28;;;;;;;;;;4190874;34;20138;-50
2021/03/30 03:31:38;;;;;;;10.60;7.37;;;;;;;;;;4190696;34;20110;-48
2021/03/30 03:34:06;;;;;;;12.52;7.43;;;;;;;;;;4190739;34;20136;-51
2021/03/30 03:36:37;;;;;;;10.25;6.53;;;;;;;;;;4191118;34;20538;-45
2021/03/30 03:39:07;;;;;;;13.32;7.65;;;;;;;;;;4178504;34;20125;-45
2021/03/30 03:41:34;;;;;;;10.35;7.68;;;;;;;;;;4178092;34;20110;-45
2021/03/30 03:44:00;;;;;;;14.23;8.40;;;;;;;;;;4190724;34;20113;-44
2021/03/30 03:46:26;;;;;;;16.55;9.05;;;;;;;;;;4190674;34;20108;-45
2021/03/30 03:48:53;;;;;;;14.40;7.95;;;;;;;;;;4190919;34;20120;-45
2021/03/30 03:51:20;;;;;;;12.98;8.25;;;;;;;;;;4190802;34;20102;-45
2021/03/30 03:53:51;;;;;;;14.35;7.68;;;;;;;;;;4167251;34;20189;-47
2021/03/30 03:56:24;;;;;;;17.17;8.68;;;;;;;;;;4192557;34;20136;-45
2021/03/30 03:58:53;;;;;;;13.85;7.72;;;;;;;;;;4180111;34;20589;-46
2021/03/30 04:01:38;;;;;;;21.45;7.47;;;;;;;;;;4168863;34;20393;-45
2021/03/30 04:04:28;;;;;;;14.65;8.30;;;;;;;;;;4181195;34;20145;-46
2021/03/30 04:07:03;;;;;;;17.87;9.07;;;;;;;;;;4193021;34;20121;-50
2021/03/30 04:09:30;;;;;;;16.17;8.80;;;;;;;;;;4192913;34;20097;-47
2021/03/30 04:11:59;;;;;;;19.37;8.65;;;;;;;;;;4169222;34;20218;-53
2021/03/30 04:14:29;;;;;;;16.00;8.82;;;;;;;;;;4192786;34;20165;-51
2021/03/30 04:16:56;;;;;;;16.12;9.15;;;;;;;;;;4168689;34;20202;-54
2021/03/30 04:19:23;;;;;;;20.80;8.82;;;;;;;;;;4192545;34;20122;-50
2021/03/30 04:21:50;;;;;;;13.32;8.30;;;;;;;;;;4179937;34;20494;-53
2021/03/30 04:24:17;;;;;;;16.60;7.80;;;;;;;;;;4179956;34;20118;-51
2021/03/30 04:26:45;;;;;;;9.68;7.37;;;;;;;;;;4180009;34;20566;-52
2021/03/30 04:29:11;;;;;;;13.43;6.93;;;;;;;;;;4192476;34;20189;-52
2021/03/30 04:31:38;;;;;;;14.63;7.22;;;;;;;;;;4179862;34;20146;-44
2021/03/30 04:34:06;;;;;;;13.70;7.57;;;;;;;;;;4192670;34;20090;-46
2021/03/30 04:36:33;;;;;;;10.20;6.97;;;;;;;;;;4179563;34;20106;-44
2021/03/30 04:38:59;;;;;;;11.50;7.12;;;;;;;;;;4192389;34;20094;-44
2021/03/30 04:41:25;;;;;;;13.10;7.37;;;;;;;;;;4192347;34;20106;-44
2021/03/30 04:43:51;;;;;;;12.02;6.32;;;;;;;;;;4192504;34;20110;-44
2021/03/30 04:46:18;;;;;;;10.95;6.55;;;;;;;;;;4179407;34;20450;-44
2021/03/30 04:48:44;;;;;;;13.02;6.30;;;;;;;;;;4179451;34;20110;-45
2021/03/30 04:51:11;;;;;;;13.80;6.50;;;;;;;;;;4192374;34;20263;-46
2021/03/30 04:53:40;;;;;;;8.52;6.53;;;;;;;;;;4192417;34;20091;-48
2021/03/30 04:56:06;;;;;;;10.73;6.85;;;;;;;;;;4192444;34;20112;-48
2021/03/30 04:58:34;;;;;;;11.40;6.60;;;;;;;;;;4192162;34;20435;-49
2021/03/30 05:01:01;;;;;;;13.57;6.70;;;;;;;;;;4192352;34;20107;-48
2021/03/30 05:03:27;;;;;;;12.13;6.28;;;;;;;;;;4192403;34;20547;-52
2021/03/30 05:05:59;;;;;;;10.93;6.10;;;;;;;;;;4191655;34;20198;-50
2021/03/30 05:08:26;;;;;;;11.80;6.57;;;;;;;;;;4192309;34;20118;-50
2021/03/30 05:10:53;;;;;;;12.57;6.80;;;;;;;;;;4192110;34;20598;-49
2021/03/30 05:13:20;;;;;;;14.55;8.73;;;;;;;;;;4192221;34;21026;-52
2021/03/30 05:15:47;;;;;;;12.10;7.90;;;;;;;;;;4179329;34;20107;-51
2021/03/30 05:18:15;;;;;;;11.93;7.85;;;;;;;;;;4179586;34;20129;-52
2021/03/30 05:20:41;;;;;;;10.02;6.60;;;;;;;;;;4179158;34;20102;-54
2021/03/30 05:23:09;;;;;;;9.20;6.72;;;;;;;;;;4192173;34;20518;-49
2021/03/30 05:25:37;;;;;;;9.73;6.10;;;;;;;;;;4179370;34;20113;-50
2021/03/30 05:28:05;;;;;;;13.52;7.70;;;;;;;;;;4192094;34;20538;-51
2021/03/30 05:30:31;;;;;;;11.02;6.85;;;;;;;;;;4191666;34;20115;-50
2021/03/30 05:32:59;;;;;;;11.07;6.78;;;;;;;;;;4191994;34;20520;-50
2021/03/30 05:35:25;;;;;;;14.57;7.75;;;;;;;;;;4179068;34;20482;-52
2021/03/30 05:37:51;;;;;;;13.20;8.32;;;;;;;;;;4191772;34;20548;-54
2021/03/30 05:40:18;;;;;;;10.80;8.02;;;;;;;;;;4167632;34;20102;-50
2021/03/30 05:42:46;;;;;;;13.65;7.62;;;;;;;;;;4179022;34;20174;-53
2021/03/30 05:45:15;;;;;;;11.82;6.78;;;;;;;;;;4178849;34;20128;-51
2021/03/30 05:47:42;;;;;;;8.38;6.60;;;;;;;;;;4191824;34;20106;-49
2021/03/30 05:50:13;;;;;;;12.40;5.72;;;;;;;;;;4179029;34;20515;-48
2021/03/30 05:55:25;;;;;;;13.25;6.57;;;;;;;;;;4179473;34;20114;-52
2021/03/30 05:57:53;;;;;;;9.68;6.10;;;;;;;;;;4178942;34;20179;-48
2021/03/30 06:00:27;;;;;;;11.10;6.85;;;;;;;;;;4179018;34;20121;-49
2021/03/30 06:02:57;;;;;;;11.63;6.75;;;;;;;;;;4191569;34;20168;-49
2021/03/30 06:05:23;;;;;;;15.20;9.25;;;;;;;;;;4178929;34;20105;-51
2021/03/30 06:07:53;;;;;;;15.30;8.10;;;;;;;;;;4167439;34;20137;-45
2021/03/30 06:10:21;;;;;;;14.18;9.02;;;;;;;;;;4191530;34;20528;-46
2021/03/30 06:12:48;;;;;;;17.77;8.55;;;;;;;;;;4178541;34;20644;-45
2021/03/30 06:15:15;;;;;;;17.23;10.50;;;;;;;;;;4191255;34;20101;-44
2021/03/30 06:17:49;;;;;;;19.73;11.18;;;;;;;;;;4177986;34;20122;-48
2021/03/30 06:20:34;;;;;;;17.37;10.98;;;;;;;;;;4179283;34;20186;-44
2021/03/30 06:23:01;;;;;;;20.88;11.27;;;;;;;;;;4191270;34;20565;-47
2021/03/30 06:25:44;;;;;;;15.75;11.07;;;;;;;;;;4167420;34;20120;-45
2021/03/30 06:28:26;;;;;;;17.87;10.82;;;;;;;;;;4191607;34;20148;-44
2021/03/30 06:30:55;;;;;;;12.85;9.43;;;;;;;;;;4191204;34;20126;-44
2021/03/30 06:33:21;;;;;;;16.52;8.23;;;;;;;;;;4178698;34;20094;-46
2021/03/30 06:35:48;;;;;;;13.88;7.35;;;;;;;;;;4191139;34;20109;-44
2021/03/30 06:38:14;;;;;;;14.73;8.07;;;;;;;;;;4191229;34;20106;-45
2021/03/30 06:40:43;;;;;;;10.13;7.07;;;;;;;;;;4178355;34;20525;-45
2021/03/30 06:46:11;;;;;;;7.72;5.50;;;;;;;;;;4191276;34;20133;-49
2021/03/30 06:48:40;;;;;;;9.00;5.97;;;;;;;;;;4191252;34;20522;-50
2021/03/30 06:51:24;;;;;;;8.45;5.70;;;;;;;;;;4178421;34;20134;-53
2021/03/30 06:53:50;;;;;;;8.20;5.55;;;;;;;;;;4190949;34;20578;-48
2021/03/30 06:56:16;;;;;;;11.30;5.72;;;;;;;;;;4178277;34;20188;-49
2021/03/30 06:58:58;;;;;;;13.55;5.97;;;;;;;;;;4191277;34;20479;-48
2021/03/30 07:01:25;;;;;;;11.68;5.68;;;;;;;;;;4190855;34;20126;-48
2021/03/30 07:03:55;;;;;;;9.45;4.85;;;;;;;;;;4191097;34;20098;-49
2021/03/30 07:06:21;;;;;;;7.90;4.60;;;;;;;;;;4178147;34;20489;-49
2021/03/30 07:08:47;;;;;;;8.52;5.03;;;;;;;;;;4178227;34;20172;-50
2021/03/30 07:11:18;;;;;;;11.70;5.53;;;;;;;;;;4191037;34;20586;-48
2021/03/30 07:13:44;;;;;;;10.48;5.55;;;;;;;;;;4178172;34;20094;-50
2021/03/30 07:16:23;;;;;;;9.18;5.30;;;;;;;;;;4190936;34;20208;-47
2021/03/30 07:18:50;;;;;;;8.93;5.00;;;;;;;;;;4179540;34;20125;-49
2021/03/30 07:21:30;;;;;;;9.52;5.53;;;;;;;;;;4177959;34;20462;-50
2021/03/30 07:23:59;;;;;;;12.32;5.25;;;;;;;;;;4167065;34;20526;-50
2021/03/30 07:26:35;;;;;;;9.95;4.85;;;;;;;;;;4177929;34;20474;-49
2021/03/30 07:29:14;;;;;;;10.57;5.93;;;;;;;;;;4178242;34;20129;-50
2021/03/30 07:31:48;;;;;;;9.88;5.55;;;;;;;;;;4178196;34;20222;-48
2021/03/30 07:34:19;;;;;;;10.88;5.65;;;;;;;;;;4178031;34;20526;-50
2021/03/30 07:37:08;;;;;;;9.68;5.40;;;;;;;;;;4167291;34;20126;-45
2021/03/30 07:39:39;;;;;;;11.02;5.85;;;;;;;;;;4178057;34;20503;-47
2021/03/30 07:42:05;;;;;;;9.18;5.15;;;;;;;;;;4190644;34;20133;-51
2021/03/30 07:44:31;;;;;;;7.80;5.55;;;;;;;;;;4190614;34;20363;-48
2021/03/30 07:46:57;;;;;;;8.18;5.15;;;;;;;;;;4190504;34;20149;-50
2021/03/30 07:49:30;;;;;;;6.20;5.10;;;;;;;;;;4178126;34;20110;-48
2021/03/30 07:52:16;;;;;;;7.62;5.97;;;;;;;;;;4167850;34;20245;-50
2021/03/30 07:55:27;;;;;;;12.90;5.07;;;;;;;;;;4190697;34;20522;-50
2021/03/30 07:57:54;;;;;;;6.97;5.57;;;;;;;;;;4190656;34;20113;-49
2021/03/30 08:00:32;;;;;;;9.35;5.15;;;;;;;;;;4190622;34;20105;-48
2021/03/30 08:03:12;;;;;;;9.05;4.78;;;;;;;;;;4190323;34;20129;-48
2021/03/30 08:05:39;;;;;;;8.32;4.80;;;;;;;;;;4178344;34;20202;-48
2021/03/30 08:08:26;;;;;;;11.18;5.15;;;;;;;;;;4190533;34;20122;-48
2021/03/30 08:10:54;;;;;;;7.87;4.95;;;;;;;;;;4190349;34;20112;-50
2021/03/30 08:13:32;;;;;;;9.20;5.25;;;;;;;;;;4177815;34;20114;-48
2021/03/30 08:16:01;;;;;;;8.82;5.00;;;;;;;;;;4190445;34;20228;-48
2021/03/30 08:18:33;;;;;;;9.27;5.28;;;;;;;;;;4190568;34;20195;-50
2021/03/30 08:21:19;;;;;;;6.43;4.78;;;;;;;;;;4190172;34;20313;-48
2021/03/30 08:23:51;;;;;;;8.20;5.05;;;;;;;;;;4190403;34;20110;-47
2021/03/30 08:26:30;;;;;;;10.50;5.28;;;;;;;;;;4190230;34;20117;-49
2021/03/30 08:29:22;;;;;;;9.07;5.30;;;;;;;;;;4190160;34;20191;-46
2021/03/30 08:31:53;;;;;;;6.78;5.32;;;;;;;;;;4177567;34;20486;-46
2021/03/30 08:34:26;;;;;;;9.13;4.80;;;;;;;;;;4166293;34;20114;-48
2021/03/30 08:37:05;;;;;;;8.40;5.40;;;;;;;;;;4190101;34;20129;-46
2021/03/30 08:39:33;;;;;;;6.05;4.40;;;;;;;;;;4167034;34;20520;-49
2021/03/30 08:42:04;;;;;;;5.72;4.12;;;;;;;;;;4179473;34;20102;-47
2021/03/30 08:44:33;;;;;;;7.03;4.30;;;;;;;;;;4192332;34;20129;-48
2021/03/30 08:47:00;;;;;;;5.60;3.92;;;;;;;;;;4179501;34;20190;-50
2021/03/30 08:49:35;;;;;;;7.87;4.72;;;;;;;;;;4179660;34;20121;-47
2021/03/30 08:52:16;;;;;;;7.82;4.28;;;;;;;;;;4179416;34;20112;-49
2021/03/30 08:54:53;;;;;;;8.90;4.03;;;;;;;;;;4179292;34;20150;-48
2021/03/30 08:57:31;;;;;;;7.57;3.80;;;;;;;;;;4192272;34;20221;-48
2021/03/30 08:59:59;;;;;;;7.30;3.80;;;;;;;;;;4179590;34;20116;-48
2021/03/30 09:02:26;;;;;;;7.12;4.55;;;;;;;;;;4179380;34;20143;-48
2021/03/30 09:04:53;;;;;;;7.85;4.53;;;;;;;;;;4192198;34;20194;-49
2021/03/30 09:07:20;;;;;;;10.07;4.53;;;;;;;;;;4192069;34;20234;-51
2021/03/30 09:09:47;;;;;;;5.70;4.07;;;;;;;;;;4192298;34;20540;-49
2021/03/30 09:12:17;;;;;;;8.75;4.78;;;;;;;;;;4192165;34;20138;-52
2021/03/30 09:14:43;;;;;;;8.73;4.30;;;;;;;;;;4191876;34;20113;-49
2021/03/30 09:17:12;;;;;;;6.10;4.28;;;;;;;;;;4191989;34;20121;-50
2021/03/30 09:19:48;;;;;;;6.03;4.50;;;;;;;;;;4192233;34;20129;-50
2021/03/30 09:22:21;;;;;;;7.95;4.12;;;;;;;;;;4179582;34;20097;-51
2021/03/30 09:27:29;;;;;;;9.35;4.60;;;;;;;;;;4191931;34;20121;-50
2021/03/30 09:29:57;;;;;;;5.87;3.90;;;;;;;;;;4179600;34;20105;-53
2021/03/30 09:32:24;;;;;;;5.62;4.10;;;;;;;;;;4192266;34;20418;-52
2021/03/30 09:34:50;;;;;;;5.32;3.15;;;;;;;;;;4179336;34;20510;-50
2021/03/30 09:37:16;;;;;;;5.03;3.60;;;;;;;;;;4192107;34;20125;-48
2021/03/30 09:39:42;;;;;;;5.20;3.25;;;;;;;;;;4192194;34;20125;-46
2021/03/30 09:42:08;;;;;;;4.47;3.22;;;;;;;;;;4191967;34;20122;-50
2021/03/30 09:44:43;;;;;;;5.05;3.03;;;;;;;;;;4191925;34;20225;-48
2021/03/30 09:47:10;;;;;;;4.45;2.90;;;;;;;;;;4168315;34;20108;-49
2021/03/30 09:49:36;;;;;;;5.47;3.28;;;;;;;;;;4167735;34;20215;-51
2021/03/30 09:52:03;;;;;;;5.37;3.42;;;;;;;;;;4179177;34;20144;-49
2021/03/30 09:54:32;;;;;;;6.05;3.80;;;;;;;;;;4179337;34;20185;-49
2021/03/30 09:57:00;;;;;;;5.43;3.78;;;;;;;;;;4191860;34;20156;-47
2021/03/30 09:59:26;;;;;;;6.00;3.33;;;;;;;;;;4179225;34;20102;-47
2021/03/30 10:01:56;;;;;;;4.30;2.80;;;;;;;;;;4191458;34;20124;-51
2021/03/30 10:04:24;;;;;;;4.12;3.20;;;;;;;;;;4167991;34;20450;-50
2021/03/30 10:06:50;;;;;;;4.43;2.97;;;;;;;;;;4191425;34;20122;-49
2021/03/30 10:09:16;;;;;;;5.25;2.70;;;;;;;;;;4178922;34;20230;-46
2021/03/30 10:11:44;;;;;;;6.25;2.78;;;;;;;;;;4178581;34;20129;-51
2021/03/30 10:14:25;;;;;;;4.90;2.83;;;;;;;;;;4178995;34;20121;-48
2021/03/30 10:16:54;;;;;;;3.05;2.62;;;;;;;;;;4167669;34;20118;-49
2021/03/30 10:19:20;;;;;;;7.05;2.70;;;;;;;;;;4179018;34;20202;-47
2021/03/30 10:21:51;;;;;;;3.87;2.55;;;;;;;;;;4178783;34;20209;-49
2021/03/30 10:24:19;;;;;;;4.68;2.65;;;;;;;;;;4191373;34;20233;-50
2021/03/30 10:27:12;;;;;;;6.35;3.20;;;;;;;;;;4191520;34;20110;-50
2021/03/30 10:29:41;;;;;;;3.70;2.92;;;;;;;;;;4176887;34;20234;-48
2021/03/30 10:32:16;;;;;;;4.22;3.20;;;;;;;;;;4191302;34;20129;-50
2021/03/30 10:34:42;;;;;;;4.45;3.08;;;;;;;;;;4157267;34;20121;-44
2021/03/30 10:37:10;;;;;;;3.53;2.78;;;;;;;;;;4191412;34;20102;-49
2021/03/30 10:39:42;;;;;;;5.03;2.60;;;;;;;;;;4191690;34;20102;-46
2021/03/30 10:42:15;;;;;;;2.90;2.50;;;;;;;;;;4191710;34;20536;-50
2021/03/30 10:44:46;;;;;;;4.37;2.58;;;;;;;;;;4179376;34;20197;-46
2021/03/30 10:47:15;;;;;;;3.37;2.12;;;;;;;;;;4191372;34;20138;-51
2021/03/30 10:49:41;;;;;;;4.45;2.72;;;;;;;;;;4191639;34;20536;-49
2021/03/30 10:52:12;;;;;;;5.32;2.92;;;;;;;;;;4191481;34;20110;-51
2021/03/30 10:54:39;;;;;;;3.35;2.22;;;;;;;;;;4191587;34;20129;-46
2021/03/30 10:57:08;;;;;;;4.28;3.12;;;;;;;;;;4167349;34;20101;-49
2021/03/30 10:59:34;;;;;;;3.30;2.60;;;;;;;;;;4178630;34;20130;-49
2021/03/30 11:02:00;;;;;;;3.53;2.40;;;;;;;;;;4190668;34;20213;-46
2021/03/30 11:04:27;;;;;;;4.03;2.33;;;;;;;;;;4191328;34;20538;-51
2021/03/30 11:06:53;;;;;;;4.03;2.45;;;;;;;;;;4178222;34;20145;-50
2021/03/30 11:09:19;;;;;;;3.50;2.60;;;;;;;;;;4191242;34;20559;-51
2021/03/30 11:11:45;;;;;;;5.07;3.05;;;;;;;;;;4191306;34;20226;-50
2021/03/30 11:14:11;;;;;;;6.15;2.90;;;;;;;;;;4178678;34;20116;-51
2021/03/30 11:16:37;;;;;;;4.32;2.30;;;;;;;;;;4178195;34;20133;-50
2021/03/30 11:19:04;;;;;;;3.45;2.05;;;;;;;;;;4178274;34;20137;-52
2021/03/30 11:21:30;;;;;;;4.60;2.33;;;;;;;;;;4190933;34;20113;-50
2021/03/30 11:24:00;;;;;;;3.58;2.45;;;;;;;;;;4191169;34;20521;-50
2021/03/30 11:26:27;;;;;;;5.37;2.50;;;;;;;;;;4167886;34;20125;-53
2021/03/30 11:28:54;;;;;;;3.35;2.60;;;;;;;;;;4191030;34;20117;-48
2021/03/30 11:31:42;;;;;;;2.72;2.17;;;;;;;;;;4191090;34;20197;-45
2021/03/30 11:37:17;;;;;;;2.70;2.30;;;;;;;;;;4164959;34;20105;-49
2021/03/30 11:39:43;;;;;;;4.25;2.40;;;;;;;;;;4190925;34;20197;-54
2021/03/30 11:42:09;;;;;;;3.87;2.28;;;;;;;;;;4190994;34;20190;-45
2021/03/30 11:44:36;;;;;;;3.65;2.25;;;;;;;;;;4190886;34;20126;-46
2021/03/30 11:47:02;;;;;;;3.25;2.28;;;;;;;;;;4190877;34;20175;-46
2021/03/30 11:49:29;;;;;;;5.37;2.70;;;;;;;;;;4190890;34;20103;-46
2021/03/30 11:51:55;;;;;;;5.10;2.47;;;;;;;;;;4190947;34;20109;-45
2021/03/30 11:54:22;;;;;;;12.88;8.73;;;;;;;;;;4191013;34;20203;-49
2021/03/30 11:56:48;;;;;;;5.40;2.97;;;;;;;;;;4178156;34;20534;-51
2021/03/30 11:59:14;;;;;;;3.12;2.10;;;;;;;;;;4190917;34;20121;-51
2021/03/30 12:01:40;;;;;;;3.55;2.50;;;;;;;;;;4190428;34;20121;-50
2021/03/30 12:04:06;;;;;;;4.00;2.62;;;;;;;;;;4190726;34;20145;-45
2021/03/30 12:06:32;;;;;;;2.67;2.17;;;;;;;;;;4190452;34;20198;-51
2021/03/30 12:08:59;;;;;;;2.85;2.35;;;;;;;;;;4190654;34;20229;-51
2021/03/30 12:11:27;;;;;;;3.28;2.67;;;;;;;;;;4190679;34;20125;-46
2021/03/30 12:13:53;;;;;;;3.62;2.37;;;;;;;;;;4190437;34;20213;-51
2021/03/30 12:16:19;;;;;;;6.10;2.70;;;;;;;;;;4192652;34;20133;-51
2021/03/30 12:18:45;;;;;;;5.65;2.60;;;;;;;;;;4192556;34;20532;-47
2021/03/30 12:21:11;;;;;;;3.47;2.60;;;;;;;;;;4192831;34;20193;-52
2021/03/30 12:23:37;;;;;;;4.70;3.53;;;;;;;;;;4192491;34;20217;-51
2021/03/30 12:26:04;;;;;;;5.12;2.72;;;;;;;;;;4168328;34;20553;-47
2021/03/30 12:28:30;;;;;;;4.05;2.60;;;;;;;;;;4179973;34;20110;-51
2021/03/30 12:30:56;;;;;;;4.97;2.30;;;;;;;;;;4192618;34;20470;-44
2021/03/30 12:33:24;;;;;;;8.13;2.78;;;;;;;;;;4192461;34;20525;-51
2021/03/30 12:35:50;;;;;;;4.80;2.65;;;;;;;;;;4192459;34;20114;-51
2021/03/30 12:38:17;;;;;;;4.22;2.47;;;;;;;;;;4192589;34;20106;-50
2021/03/30 12:40:43;;;;;;;5.35;2.20;;;;;;;;;;4192193;34;20137;-45
2021/03/30 12:43:10;;;;;;;5.93;2.25;;;;;;;;;;4192659;34;20130;-48
2021/03/30 12:45:36;;;;;;;4.30;2.30;;;;;;;;;;4179732;34;20573;-46
2021/03/30 12:48:06;;;;;;;4.70;2.30;;;;;;;;;;4192663;34;20442;-50
2021/03/30 12:50:33;;;;;;;7.95;2.33;;;;;;;;;;4192510;34;20591;-51
2021/03/30 12:53:00;;;;;;;3.40;2.30;;;;;;;;;;4192529;34;20125;-52
2021/03/30 12:55:26;;;;;;;4.85;2.83;;;;;;;;;;4179507;34;20098;-50
2021/03/30 12:57:52;;;;;;;6.18;2.50;;;;;;;;;;4192505;34;20202;-48
2021/03/30 13:00:18;;;;;;;6.45;2.95;;;;;;;;;;4179417;34;20121;-49
2021/03/30 13:02:45;;;;;;;2.72;2.17;;;;;;;;;;4179633;34;20185;-49
2021/03/30 13:05:11;;;;;;;7.40;2.12;;;;;;;;;;4192242;34;20114;-48
2021/03/30 13:07:38;;;;;;;4.45;2.47;;;;;;;;;;4192038;34;20200;-47
2021/03/30 13:10:06;;;;;;;3.85;2.45;;;;;;;;;;4179716;34;20116;-48
2021/03/30 13:12:32;;;;;;;5.10;2.83;;;;;;;;;;4192344;34;20129;-50
2021/03/30 13:15:05;;;;;;;8.00;2.58;;;;;;;;;;4179691;34;20197;-48
2021/03/30 13:17:32;;;;;;;4.20;2.42;;;;;;;;;;4192383;34;20102;-53
2021/03/30 13:19:58;;;;;;;2.97;2.42;;;;;;;;;;4179407;34;20510;-49
2021/03/30 13:22:25;;;;;;;4.37;2.50;;;;;;;;;;4192018;34;20124;-49
2021/03/30 13:24:52;;;;;;;3.50;3.12;;;;;;;;;;4191988;34;20148;-49
2021/03/30 13:27:19;;;;;;;3.15;2.60;;;;;;;;;;4179396;34;20141;-48
2021/03/30 13:29:45;;;;;;;4.75;2.60;;;;;;;;;;4192030;34;20125;-50
2021/03/30 13:32:12;;;;;;;3.55;2.35;;;;;;;;;;4179275;34;20116;-47
2021/03/30 13:34:45;;;;;;;4.72;2.55;;;;;;;;;;4192032;34;20193;-49
2021/03/30 13:37:12;;;;;;;6.22;2.65;;;;;;;;;;4192040;34;20134;-50
2021/03/30 13:39:38;;;;;;;8.73;3.20;;;;;;;;;;4192158;34;20608;-51
2021/03/30 13:42:05;;;;;;;5.10;2.75;;;;;;;;;;4179083;34;20133;-49
2021/03/30 13:44:31;;;;;;;4.35;2.80;;;;;;;;;;4179047;34;20094;-47
2021/03/30 13:46:58;;;;;;;3.45;2.45;;;;;;;;;;4192050;34;20189;-48
2021/03/30 13:49:29;;;;;;;3.40;2.42;;;;;;;;;;4179173;34;20145;-45
2021/03/30 13:51:57;;;;;;;5.93;2.95;;;;;;;;;;4179503;34;20517;-52
2021/03/30 13:54:26;;;;;;;5.25;3.37;;;;;;;;;;4179624;34;20132;-52
2021/03/30 13:56:55;;;;;;;5.37;2.60;;;;;;;;;;4179293;34;20106;-49
2021/03/30 13:59:22;;;;;;;4.82;2.70;;;;;;;;;;4179179;34;20117;-51
2021/03/30 14:01:51;;;;;;;4.32;2.00;;;;;;;;;;4191944;34;20149;-50
2021/03/30 14:04:19;;;;;;;6.93;3.00;;;;;;;;;;4192092;34;20121;-49
2021/03/30 14:06:50;;;;;;;4.28;2.83;;;;;;;;;;4179153;34;20129;-50
2021/03/30 14:09:16;;;;;;;7.15;3.80;;;;;;;;;;4191786;34;20094;-52
2021/03/30 14:16:49;;;;;;;11.27;4.25;;;;;;;;;;4191640;34;20214;-51
2021/03/30 14:19:25;;;;;;;4.15;2.50;;;;;;;;;;4191857;34;20185;-51
2021/03/30 14:21:53;;;;;;;10.60;2.90;;;;;;;;;;4191519;34;20137;-53
2021/03/30 14:24:33;;;;;;;4.15;2.67;;;;;;;;;;4191707;34;20521;-51
2021/03/30 14:27:00;;;;;;;5.55;2.87;;;;;;;;;;4168539;34;20111;-51
2021/03/30 14:29:26;;;;;;;5.78;2.87;;;;;;;;;;4178908;34;20533;-47
2021/03/30 14:31:52;;;;;;;4.28;2.80;;;;;;;;;;4191530;34;20528;-45
2021/03/30 14:34:18;;;;;;;4.97;2.62;;;;;;;;;;4191698;34;20124;-48
2021/03/30 14:36:45;;;;;;;4.43;3.03;;;;;;;;;;4190950;34;20129;-50
2021/03/30 14:39:13;;;;;;;4.87;2.90;;;;;;;;;;4191242;34;20221;-49
2021/03/30 14:52:04;;;;;;;6.90;3.45;;;;;;;;;;4180792;34;20098;-53
2021/03/30 14:54:34;;;;;;;7.25;3.62;;;;;;;;;;4179851;34;20221;-45
2021/03/30 14:57:11;;;;;;;9.70;4.60;;;;;;;;;;4191592;34;20206;-50
2021/03/30 14:59:48;;;;;;;8.35;4.00;;;;;;;;;;4157572;34;20099;-47
2021/03/30 15:02:20;;;;;;;8.20;3.70;;;;;;;;;;4179551;34;20141;-50
2021/03/30 15:04:47;;;;;;;17.87;11.68;;;;;;;;;;4179393;34;20121;-48
2021/03/30 15:07:14;;;;;;;7.97;4.45;;;;;;;;;;4191068;34;20453;-48
2021/03/30 15:09:40;;;;;;;8.65;3.87;;;;;;;;;;4191230;34;20248;-48
2021/03/30 15:12:09;;;;;;;7.72;3.83;;;;;;;;;;4191241;34;20125;-50
2021/03/30 15:14:40;;;;;;;8.52;3.20;;;;;;;;;;4178228;34;20125;-54
2021/03/30 15:17:06;;;;;;;5.85;3.55;;;;;;;;;;4191259;34;20110;-52
2021/03/30 15:19:33;;;;;;;6.78;3.53;;;;;;;;;;4191426;34;20498;-52
2021/03/30 15:22:00;;;;;;;12.35;3.60;;;;;;;;;;4190985;34;20128;-54
2021/03/30 15:24:26;;;;;;;7.60;4.85;;;;;;;;;;4178648;34;20117;-51
2021/03/30 15:26:53;;;;;;;6.28;4.37;;;;;;;;;;4191005;34;20135;-54